Huvudsida
METAR-TAF:

METAR-TAF

Flygplatser :

Funafuti, Tuvalu

latitud: 08-31S, longitud: 179-13E, höjd: 1 m

Aktuellt väderrapport

Denna rapport gjordes för 22 minuter sedan, klockan 20:00 UTC
Vind 6 kt från nordost
Temperatur 29°C
Fuktighet 70%
Tryck 1010 hPa
Sikt 10 km eller mer
Få moln på en höjd av 2100 ft
Brutna moln på en höjd av 31000 ft

METAR: NGFU 212000Z 05006KT 9999 FEW021 BKN310 29/23 Q1010

Tid: 08:22 (20:22 UTC)

Väderprognos

Denna rapport gjordes för 3 timmar och 11 minuter sedan, klockan 17:11 UTC
Prognos gäller från 21 kl. 18 UTC till 22 kl. 18 UTC
Vind 8 kt från ost/nordost
Sikt 10 km eller mer
Spridda moln på en höjd av 1700 ft
Spridda moln på en höjd av 5000 ft
Sannolikhet 30% :
Temporärt
från 21 kl. 18 UTC till 21 kl. 24 UTC
Sikt: 5000 m
Få moln på en höjd av 1700 ft, Cumulonimbus.
åska, regn

TAF: NGFU 211711Z 2118/2218 07008KT 9999 SCT017 SCT050 PROB30 TEMPO 2118/2124 5000 TSRA FEW017CB

Aktuella väderrapporter och prognoser från 4000 flygplatser (METAR- och TAF-rapporter).

De tillgängliga stationerna syns som gula och röda prickar på kartan.

För musen över prickarna för att se namnen på stationerna.

Klicka sedan för att få väderrapporter och prognoser.

För att ändra kartan: Klicka på de gröna knapparna med ett svart kors på för att zooma in; den gröna knappen med ett streck på för att zooma ut; eller på de gröna pilarna för angränsande kartor.


METAR-TAF: